createdAt,value
2019-03-25T00:01:04.778Z,4.97
2019-03-25T00:03:33.949Z,4.67
2019-03-25T00:06:03.079Z,4.70
2019-03-25T00:08:32.214Z,4.50
2019-03-25T00:11:01.300Z,4.42
2019-03-25T00:13:30.418Z,5.00
2019-03-25T00:15:59.893Z,4.17
2019-03-25T00:18:28.979Z,3.87
2019-03-25T00:20:58.075Z,5.03
2019-03-25T00:23:27.460Z,4.50
2019-03-25T00:25:56.557Z,4.72
2019-03-25T00:28:25.668Z,4.37
2019-03-25T00:30:54.756Z,5.10
2019-03-25T00:33:23.872Z,4.42
2019-03-25T00:35:52.973Z,4.10
2019-03-25T00:38:24.596Z,4.90
2019-03-25T00:40:54.962Z,4.30
2019-03-25T00:43:26.208Z,4.12
2019-03-25T00:45:55.291Z,4.62
2019-03-25T00:48:24.723Z,4.25
2019-03-25T00:50:54.183Z,4.22
2019-03-25T00:53:23.339Z,4.08
2019-03-25T00:55:52.435Z,3.60
2019-03-25T00:58:21.553Z,4.35
2019-03-25T01:00:50.727Z,4.65
2019-03-25T01:03:19.768Z,3.33
2019-03-25T01:05:49.190Z,3.87
2019-03-25T01:08:18.298Z,4.28
2019-03-25T01:10:48.067Z,3.60
2019-03-25T01:13:17.948Z,3.87
2019-03-25T01:15:50.153Z,3.90
2019-03-25T01:18:19.977Z,3.83
2019-03-25T01:20:49.395Z,3.77
2019-03-25T01:23:19.179Z,4.42
2019-03-25T01:25:48.285Z,3.77
2019-03-25T01:28:17.366Z,4.00
2019-03-25T01:30:46.496Z,4.08
2019-03-25T01:33:15.978Z,5.05
2019-03-25T01:35:46.198Z,3.77
2019-03-25T01:38:18.807Z,4.65
2019-03-25T01:40:47.912Z,3.98
2019-03-25T01:43:20.475Z,5.15
2019-03-25T01:45:50.307Z,4.97
2019-03-25T01:48:19.781Z,5.90
2019-03-25T01:50:49.222Z,5.72
2019-03-25T01:53:18.390Z,4.87
2019-03-25T01:55:47.784Z,4.60
2019-03-25T01:58:16.883Z,5.40
2019-03-25T02:00:49.571Z,4.70
2019-03-25T02:03:18.685Z,5.53
2019-03-25T02:05:47.776Z,5.37
2019-03-25T02:08:17.185Z,5.40
2019-03-25T02:10:46.330Z,6.08
2019-03-25T02:13:15.416Z,4.42
2019-03-25T02:15:44.589Z,5.30
2019-03-25T02:18:13.637Z,6.03
2019-03-25T02:20:44.564Z,4.72
2019-03-25T02:23:13.741Z,5.22
2019-03-25T02:25:43.190Z,5.10
2019-03-25T02:28:12.305Z,5.17
2019-03-25T02:30:42.111Z,6.12
2019-03-25T02:33:14.319Z,5.15
2019-03-25T02:35:43.718Z,5.37
2019-03-25T02:38:12.790Z,5.72
2019-03-25T02:40:41.893Z,4.87
2019-03-25T02:43:11.702Z,5.60
2019-03-25T02:45:41.535Z,5.50
2019-03-25T02:48:11.292Z,5.58
2019-03-25T02:50:40.423Z,5.65
2019-03-25T02:53:09.871Z,5.97
2019-03-25T02:55:41.900Z,6.25
2019-03-25T02:58:10.125Z,6.92
2019-03-25T03:00:41.537Z,5.75
2019-03-25T03:03:10.620Z,7.15
2019-03-25T03:05:43.108Z,7.55
2019-03-25T03:08:12.220Z,7.62
2019-03-25T03:10:41.671Z,7.17
2019-03-25T03:13:10.790Z,7.55
2019-03-25T03:15:39.894Z,8.08
2019-03-25T03:18:08.991Z,8.33
2019-03-25T03:20:38.104Z,7.87
2019-03-25T03:23:10.649Z,7.87
2019-03-25T03:25:55.699Z,8.70
2019-03-25T03:28:10.942Z,8.70
2019-03-25T03:30:40.402Z,8.68
2019-03-25T03:33:09.509Z,7.30
2019-03-25T03:35:38.600Z,8.48
2019-03-25T03:38:07.706Z,8.40
2019-03-25T03:40:37.541Z,7.40
2019-03-25T03:43:06.679Z,7.95
2019-03-25T03:45:35.795Z,8.63
2019-03-25T03:48:04.921Z,8.28
2019-03-25T03:50:34.342Z,8.80
2019-03-25T03:53:06.483Z,8.00
2019-03-25T03:55:35.609Z,8.30
2019-03-25T03:58:07.531Z,9.15
2019-03-25T04:00:38.673Z,8.58
2019-03-25T04:03:07.746Z,8.20
2019-03-25T04:05:38.803Z,9.05
2019-03-25T04:08:07.926Z,10.38
2019-03-25T04:10:38.400Z,9.45
2019-03-25T04:13:07.476Z,11.53
2019-03-25T04:15:36.574Z,11.35
2019-03-25T04:18:05.641Z,10.30
2019-03-25T04:20:35.476Z,9.93
2019-03-25T04:23:05.289Z,9.83
2019-03-25T04:25:36.645Z,9.03
2019-03-25T04:28:08.401Z,10.55
2019-03-25T04:30:37.513Z,10.55
2019-03-25T04:33:06.946Z,10.50
2019-03-25T04:35:36.128Z,7.80
2019-03-25T04:38:07.225Z,8.00
2019-03-25T04:40:36.583Z,7.87
2019-03-25T04:43:05.690Z,9.20
2019-03-25T04:45:34.823Z,7.15
2019-03-25T04:48:03.962Z,6.40
2019-03-25T04:50:33.699Z,6.47
2019-03-25T04:53:02.797Z,5.95
2019-03-25T04:55:31.894Z,5.70
2019-03-25T04:58:00.988Z,4.90
2019-03-25T05:00:37.092Z,4.28
2019-03-25T05:03:06.211Z,5.37
2019-03-25T05:05:36.197Z,5.92
2019-03-25T05:08:08.070Z,4.60
2019-03-25T05:10:40.369Z,4.92
2019-03-25T05:13:09.458Z,4.25
2019-03-25T05:15:38.532Z,3.90
2019-03-25T05:18:07.985Z,3.83
2019-03-25T05:20:40.169Z,4.40
2019-03-25T05:23:09.278Z,3.95
2019-03-25T05:25:39.076Z,4.03
2019-03-25T05:28:08.183Z,3.83
2019-03-25T05:30:37.371Z,4.33
2019-03-25T05:33:07.106Z,4.05
2019-03-25T05:35:36.504Z,4.28
2019-03-25T05:38:05.647Z,3.47
2019-03-25T05:40:35.384Z,3.02
2019-03-25T05:43:04.488Z,3.27
2019-03-25T05:45:33.915Z,3.60
2019-03-25T05:48:03.012Z,3.20
2019-03-25T05:50:33.069Z,3.40
2019-03-25T05:53:02.157Z,3.50
2019-03-25T05:55:32.528Z,2.83
2019-03-25T05:58:01.618Z,2.70
2019-03-25T06:00:33.571Z,3.40
2019-03-25T06:03:03.090Z,3.50
2019-03-25T06:05:32.176Z,3.65
2019-03-25T06:08:07.864Z,2.95
2019-03-25T06:10:37.256Z,3.90
2019-03-25T06:13:07.971Z,3.08
2019-03-25T06:15:37.802Z,2.80
2019-03-25T06:18:06.910Z,3.55
2019-03-25T06:20:36.033Z,3.00
2019-03-25T06:23:05.121Z,3.80
2019-03-25T06:25:34.485Z,2.90
2019-03-25T06:28:03.616Z,2.70
2019-03-25T06:30:32.686Z,2.80
2019-03-25T06:33:11.955Z,3.27
2019-03-25T06:35:36.799Z,3.02
2019-03-25T06:38:06.200Z,4.15
2019-03-25T06:40:35.314Z,2.83
2019-03-25T06:43:04.468Z,2.87
2019-03-25T06:45:33.564Z,3.87
2019-03-25T06:48:02.655Z,3.50
2019-03-25T06:50:36.998Z,3.45
2019-03-25T06:53:06.453Z,2.83
2019-03-25T06:55:35.837Z,2.95
2019-03-25T06:58:05.318Z,3.45
2019-03-25T07:00:34.433Z,3.05
2019-03-25T07:03:04.249Z,2.72
2019-03-25T07:05:34.406Z,2.95
2019-03-25T07:08:03.426Z,2.95
2019-03-25T07:10:36.549Z,2.70
2019-03-25T07:13:07.844Z,2.80
2019-03-25T07:15:40.170Z,2.30
2019-03-25T07:18:09.473Z,2.90
2019-03-25T07:20:39.530Z,2.85
2019-03-25T07:23:08.702Z,2.20
2019-03-25T07:25:38.301Z,3.05
2019-03-25T07:28:09.444Z,2.80
2019-03-25T07:30:39.307Z,2.47
2019-03-25T07:33:11.941Z,2.55
2019-03-25T07:35:41.008Z,2.98
2019-03-25T07:38:12.025Z,2.75
2019-03-25T07:40:41.108Z,2.77
2019-03-25T07:43:10.219Z,3.77
2019-03-25T07:45:39.676Z,3.40
2019-03-25T07:48:09.144Z,3.20
2019-03-25T07:50:38.295Z,2.95
2019-03-25T07:53:07.399Z,2.77
2019-03-25T07:55:38.704Z,3.08
2019-03-25T07:58:08.211Z,10.00
2019-03-25T08:00:37.932Z,7.50
2019-03-25T08:03:10.278Z,3.27
2019-03-25T08:05:39.385Z,2.72
2019-03-25T08:08:10.121Z,3.15
2019-03-25T08:10:39.801Z,4.15
2019-03-25T08:13:09.053Z,3.17
2019-03-25T08:15:38.470Z,3.08
2019-03-25T08:18:07.863Z,3.33
2019-03-25T08:20:37.871Z,2.87
2019-03-25T08:23:07.526Z,3.20
2019-03-25T08:25:36.630Z,3.52
2019-03-25T08:28:06.054Z,2.60
2019-03-25T08:30:35.490Z,2.75
2019-03-25T08:33:04.891Z,2.70
2019-03-25T08:35:34.419Z,3.90
2019-03-25T08:38:05.286Z,2.87
2019-03-25T08:40:35.450Z,3.20
2019-03-25T08:43:04.808Z,2.95
2019-03-25T08:45:34.229Z,3.08
2019-03-25T08:48:04.690Z,2.92
2019-03-25T08:50:34.123Z,2.85
2019-03-25T08:53:03.221Z,2.90
2019-03-25T08:55:33.232Z,4.15
2019-03-25T08:58:11.627Z,2.72
2019-03-25T09:00:33.869Z,3.58
2019-03-25T09:03:03.271Z,3.02
2019-03-25T09:05:35.723Z,3.12
2019-03-25T09:08:07.058Z,2.58
2019-03-25T09:10:36.440Z,2.22
2019-03-25T09:13:06.282Z,2.00
2019-03-25T09:15:35.358Z,2.30
2019-03-25T09:18:04.530Z,1.92
2019-03-25T09:20:33.630Z,1.92
2019-03-25T09:23:02.719Z,2.60
2019-03-25T09:25:31.918Z,2.22
2019-03-25T09:28:01.015Z,1.95
2019-03-25T09:31:12.054Z,2.22
2019-03-25T09:33:42.763Z,2.08
2019-03-25T09:36:12.234Z,1.77
2019-03-25T09:38:41.386Z,2.58
2019-03-25T09:41:10.520Z,2.00
2019-03-25T09:43:42.728Z,2.00
2019-03-25T09:46:11.796Z,2.20
2019-03-25T09:48:41.253Z,2.52
2019-03-25T09:51:10.337Z,1.60
2019-03-25T09:53:40.836Z,1.60
2019-03-25T09:56:15.851Z,1.90
2019-03-25T09:58:44.959Z,2.12
2019-03-25T10:01:14.062Z,1.57
2019-03-25T10:03:46.689Z,2.42
2019-03-25T10:06:16.393Z,1.10
2019-03-25T10:08:46.877Z,1.50
2019-03-25T10:11:15.966Z,1.57
2019-03-25T10:13:47.849Z,1.52
2019-03-25T10:16:20.775Z,1.42
2019-03-25T10:18:49.886Z,1.52
2019-03-25T10:21:22.361Z,1.70
2019-03-25T10:23:51.492Z,1.32
2019-03-25T10:26:21.094Z,1.72
2019-03-25T10:28:54.185Z,1.15
2019-03-25T10:31:23.250Z,1.30
2019-03-25T10:33:53.149Z,1.42
2019-03-25T10:36:23.543Z,1.27
2019-03-25T10:38:53.796Z,1.07
2019-03-25T10:41:23.507Z,1.22
2019-03-25T10:43:56.192Z,1.32
2019-03-25T10:46:25.948Z,1.50
2019-03-25T10:48:58.867Z,1.52
2019-03-25T10:51:28.293Z,1.72
2019-03-25T10:53:57.391Z,1.80
2019-03-25T10:56:26.496Z,2.25
2019-03-25T10:58:58.312Z,1.80
2019-03-25T11:01:28.437Z,1.70
2019-03-25T11:03:58.321Z,1.35
2019-03-25T11:06:27.469Z,1.40
2019-03-25T11:08:57.278Z,1.50
2019-03-25T11:11:32.535Z,1.92
2019-03-25T11:14:02.302Z,2.87
2019-03-25T11:16:31.885Z,1.70
2019-03-25T11:19:01.887Z,2.77
2019-03-25T11:21:31.008Z,2.17
2019-03-25T11:24:03.543Z,1.98
2019-03-25T11:26:32.959Z,2.35
2019-03-25T11:29:08.328Z,3.58
2019-03-25T11:31:36.456Z,2.10
2019-03-25T11:34:06.949Z,1.60
2019-03-25T11:36:36.057Z,1.40
2019-03-25T11:39:07.626Z,1.85
2019-03-25T11:41:36.733Z,1.50
2019-03-25T11:44:06.542Z,1.92
2019-03-25T11:46:37.696Z,1.42
2019-03-25T11:49:10.857Z,1.60
2019-03-25T11:51:39.933Z,1.87
2019-03-25T11:54:09.127Z,1.77
2019-03-25T11:56:41.789Z,1.92
2019-03-25T11:59:18.616Z,2.00
2019-03-25T12:01:42.614Z,2.42
2019-03-25T12:04:12.017Z,1.82
2019-03-25T12:06:44.771Z,3.20
2019-03-25T12:09:17.212Z,2.27
2019-03-25T12:11:46.423Z,1.57
2019-03-25T12:14:16.688Z,1.47
2019-03-25T12:16:49.143Z,1.55
2019-03-25T12:19:20.725Z,1.12
2019-03-25T12:21:50.414Z,2.55
2019-03-25T12:24:19.817Z,1.77
2019-03-25T12:26:52.257Z,1.82
2019-03-25T12:29:36.061Z,1.40
2019-03-25T12:32:01.581Z,1.92
2019-03-25T12:34:31.880Z,2.12
2019-03-25T12:37:01.094Z,2.08
2019-03-25T12:39:33.273Z,1.65
2019-03-25T12:42:02.398Z,1.32
2019-03-25T12:44:35.154Z,1.40
2019-03-25T12:47:04.660Z,1.63
2019-03-25T12:49:37.528Z,1.52
2019-03-25T12:52:06.630Z,1.20
2019-03-25T12:54:36.439Z,1.85
2019-03-25T12:57:07.320Z,2.00
2019-03-25T12:59:41.320Z,2.22
2019-03-25T13:02:08.045Z,2.37
2019-03-25T13:04:37.878Z,1.65
2019-03-25T13:07:06.989Z,1.45
2019-03-25T13:09:36.747Z,1.67
2019-03-25T13:12:05.877Z,2.15
2019-03-25T13:14:35.284Z,1.80
2019-03-25T13:17:04.518Z,1.90
2019-03-25T13:19:33.625Z,1.60
2019-03-25T13:22:03.048Z,1.02
2019-03-25T13:24:32.135Z,1.50
2019-03-25T13:27:01.249Z,0.90
2019-03-25T13:29:33.070Z,0.90
2019-03-25T13:32:02.834Z,1.10
2019-03-25T13:34:35.227Z,0.88
2019-03-25T13:37:04.329Z,0.90
2019-03-25T13:39:37.371Z,1.20
2019-03-25T13:42:06.477Z,0.90
2019-03-25T13:44:39.084Z,0.80
2019-03-25T13:47:08.865Z,0.90
2019-03-25T13:49:37.973Z,1.12
2019-03-25T13:52:08.723Z,1.52
2019-03-25T13:54:40.968Z,2.00
2019-03-25T13:57:12.525Z,1.27
2019-03-25T13:59:41.603Z,2.12
2019-03-25T14:02:11.937Z,1.60
2019-03-25T14:04:41.040Z,1.62
2019-03-25T14:07:13.742Z,1.67
2019-03-25T14:09:42.829Z,2.15
2019-03-25T14:12:15.353Z,2.47
2019-03-25T14:14:44.454Z,3.05
2019-03-25T14:17:17.189Z,1.80
2019-03-25T14:19:47.092Z,1.85
2019-03-25T14:22:16.719Z,2.10
2019-03-25T14:24:48.947Z,2.77
2019-03-25T14:27:18.063Z,1.02
2019-03-25T14:29:49.823Z,1.55
2019-03-25T14:32:22.655Z,0.90
2019-03-25T14:34:51.973Z,1.40
2019-03-25T14:37:21.443Z,1.30
2019-03-25T14:39:51.186Z,1.30
2019-03-25T14:42:20.334Z,1.40
2019-03-25T14:44:49.400Z,1.55
2019-03-25T14:47:18.539Z,1.70
2019-03-25T14:49:47.630Z,2.30
2019-03-25T14:52:16.752Z,2.27
2019-03-25T14:54:46.220Z,2.15
2019-03-25T14:57:17.274Z,1.80
2019-03-25T14:59:46.372Z,1.72
2019-03-25T15:02:19.260Z,2.20
2019-03-25T15:04:48.371Z,2.08
2019-03-25T15:07:21.225Z,2.83
2019-03-25T15:09:50.324Z,2.03
2019-03-25T15:12:19.828Z,2.30
2019-03-25T15:14:49.681Z,2.60
2019-03-25T15:21:06.862Z,1.77
2019-03-25T15:24:20.316Z,1.70
2019-03-25T15:27:16.864Z,1.52
2019-03-25T15:30:17.968Z,1.60
2019-03-25T15:33:11.581Z,1.85
2019-03-25T15:36:16.559Z,2.62
2019-03-25T15:42:01.571Z,1.60
2019-03-25T15:44:30.989Z,1.70
2019-03-25T15:47:05.097Z,2.00
2019-03-25T15:49:34.924Z,2.40
2019-03-25T15:52:04.098Z,1.72
2019-03-25T15:54:33.502Z,4.30
2019-03-25T15:57:02.982Z,2.37
2019-03-25T15:59:35.473Z,1.80
2019-03-25T16:02:07.660Z,1.70
2019-03-25T16:04:36.783Z,3.33
2019-03-25T16:07:08.998Z,1.80
2019-03-25T16:09:38.297Z,1.42
2019-03-25T16:12:07.771Z,1.70
2019-03-25T16:14:36.914Z,1.80
2019-03-25T16:17:06.033Z,1.82
2019-03-25T16:19:35.473Z,2.90
2019-03-25T16:22:04.725Z,1.72
2019-03-25T16:24:33.852Z,1.60
2019-03-25T16:27:03.010Z,1.55
2019-03-25T16:29:32.128Z,1.82
2019-03-25T16:32:01.574Z,1.90
2019-03-25T16:34:34.093Z,1.80
2019-03-25T16:37:03.619Z,1.72
2019-03-25T16:39:36.241Z,1.87
2019-03-25T16:42:08.753Z,1.87
2019-03-25T16:44:40.578Z,1.80
2019-03-25T16:47:14.285Z,1.42
2019-03-25T16:49:46.989Z,2.00
2019-03-25T16:52:16.099Z,2.63
2019-03-25T16:54:45.492Z,1.82
2019-03-25T16:57:15.126Z,1.90
2019-03-25T16:59:44.488Z,1.65
2019-03-25T17:02:13.654Z,1.42
2019-03-25T17:04:43.194Z,1.52
2019-03-25T17:07:15.468Z,1.70
2019-03-25T17:09:44.696Z,1.57
2019-03-25T17:12:16.940Z,1.47
2019-03-25T17:14:51.585Z,7.20
2019-03-25T17:17:20.711Z,2.98
2019-03-25T17:19:50.602Z,2.65
2019-03-25T17:22:21.618Z,5.58
2019-03-25T17:24:51.464Z,4.25
2019-03-25T17:27:31.102Z,3.22
2019-03-25T17:30:06.757Z,3.00
2019-03-25T17:32:36.649Z,3.12
2019-03-25T17:35:09.616Z,3.27
2019-03-25T17:37:45.185Z,4.25
2019-03-25T17:40:21.033Z,3.70
2019-03-25T17:42:57.806Z,4.78
2019-03-25T17:45:27.232Z,4.30
2019-03-25T17:47:59.691Z,3.70
2019-03-25T17:50:33.933Z,2.85
2019-03-25T17:53:06.422Z,3.00
2019-03-25T17:55:35.656Z,3.15
2019-03-25T17:58:08.221Z,3.30
2019-03-25T18:01:14.270Z,2.90
2019-03-25T18:03:43.725Z,3.15
2019-03-25T18:06:12.860Z,4.65
2019-03-25T18:08:41.968Z,3.58
2019-03-25T18:11:14.961Z,3.55
2019-03-25T18:13:44.460Z,2.77
2019-03-25T18:16:16.684Z,3.87
2019-03-25T18:18:46.864Z,3.27
2019-03-25T18:21:16.270Z,3.33
2019-03-25T18:23:46.657Z,2.98
2019-03-25T18:26:16.358Z,3.40
2019-03-25T18:28:48.541Z,3.58
2019-03-25T18:31:18.649Z,4.05
2019-03-25T18:33:51.184Z,3.25
2019-03-25T18:36:23.687Z,4.40
2019-03-25T18:38:53.104Z,4.40
2019-03-25T18:41:22.991Z,3.98
2019-03-25T18:43:52.115Z,4.65
2019-03-25T18:46:21.578Z,4.05
2019-03-25T18:48:52.763Z,5.42
2019-03-25T18:51:21.906Z,5.33
2019-03-25T18:53:54.122Z,5.03
2019-03-25T18:56:26.328Z,6.03
2019-03-25T18:58:55.507Z,7.10
2019-03-25T19:01:24.662Z,6.83
2019-03-25T19:03:59.962Z,9.90
2019-03-25T19:06:34.959Z,6.22
2019-03-25T19:09:07.022Z,5.90
2019-03-25T19:11:36.527Z,6.78
2019-03-25T19:14:11.760Z,7.95
2019-03-25T19:16:41.271Z,5.03
2019-03-25T19:19:13.162Z,4.45
2019-03-25T19:21:46.123Z,6.10
2019-03-25T19:24:19.815Z,6.05
2019-03-25T19:29:20.427Z,6.00
2019-03-25T19:31:49.671Z,6.55
2019-03-25T19:34:21.922Z,4.75
2019-03-25T19:36:51.457Z,5.72
2019-03-25T19:39:20.526Z,5.12
2019-03-25T19:41:50.365Z,5.70
2019-03-25T19:44:19.505Z,6.22
2019-03-25T19:46:48.631Z,8.28
2019-03-25T19:49:18.425Z,7.08
2019-03-25T19:51:47.536Z,6.90
2019-03-25T19:54:16.660Z,8.80
2019-03-25T19:56:48.514Z,7.62
2019-03-25T19:59:18.302Z,6.53
2019-03-25T20:01:47.858Z,6.22
2019-03-25T20:04:17.264Z,5.10
2019-03-25T20:06:46.393Z,5.15
2019-03-25T20:09:15.508Z,5.78
2019-03-25T20:11:47.355Z,6.37
2019-03-25T20:14:16.431Z,4.85
2019-03-25T20:16:45.617Z,4.60
2019-03-25T20:19:14.666Z,5.15
2019-03-25T20:21:45.800Z,5.08
2019-03-25T20:24:15.765Z,4.67
2019-03-25T20:26:45.279Z,5.12
2019-03-25T20:29:14.667Z,5.80
2019-03-25T20:31:43.801Z,5.37
2019-03-25T20:34:13.231Z,6.30
2019-03-25T20:36:46.436Z,7.20
2019-03-25T20:39:15.566Z,8.10
2019-03-25T20:41:44.716Z,7.90
2019-03-25T20:44:14.652Z,7.80
2019-03-25T20:46:45.129Z,7.20
2019-03-25T20:49:16.629Z,7.22
2019-03-25T20:51:46.115Z,7.55
2019-03-25T20:54:15.223Z,7.42
2019-03-25T20:56:44.414Z,8.40
2019-03-25T20:59:16.314Z,8.30
2019-03-25T21:01:45.634Z,8.40
2019-03-25T21:04:14.742Z,8.23
2019-03-25T21:06:44.112Z,7.95
2019-03-25T21:09:13.616Z,7.78
2019-03-25T21:11:46.394Z,9.03
2019-03-25T21:14:15.496Z,8.63
2019-03-25T21:16:44.628Z,7.55
2019-03-25T21:19:15.140Z,8.88
2019-03-25T21:21:47.574Z,8.40
2019-03-25T21:24:19.187Z,7.95
2019-03-25T21:26:50.156Z,8.83
2019-03-25T21:29:19.571Z,8.60
2019-03-25T21:31:48.751Z,10.23
2019-03-25T21:34:18.038Z,9.58
2019-03-25T21:36:47.644Z,10.65
2019-03-25T21:39:16.807Z,9.93
2019-03-25T21:41:46.287Z,11.40
2019-03-25T21:44:17.587Z,10.90
2019-03-25T21:46:46.751Z,10.80
2019-03-25T21:49:16.424Z,10.40
2019-03-25T21:51:45.550Z,11.03
2019-03-25T21:54:14.683Z,12.15
2019-03-25T21:56:43.791Z,13.13
2019-03-25T21:59:12.921Z,11.63
2019-03-25T22:01:42.116Z,12.68
2019-03-25T22:04:14.766Z,12.00
2019-03-25T22:06:44.595Z,12.03
2019-03-25T22:09:14.480Z,13.70
2019-03-25T22:11:43.910Z,12.95
2019-03-25T22:14:13.731Z,13.53
2019-03-25T22:16:42.856Z,13.20
2019-03-25T22:19:16.019Z,13.25
2019-03-25T22:21:45.129Z,13.55
2019-03-25T22:24:14.591Z,13.60
2019-03-25T22:26:44.001Z,15.15
2019-03-25T22:29:13.333Z,14.18
2019-03-25T22:31:42.452Z,14.05
2019-03-25T22:34:14.973Z,14.33
2019-03-25T22:36:47.217Z,15.08
2019-03-25T22:39:16.392Z,15.13
2019-03-25T22:41:47.887Z,15.40
2019-03-25T22:44:16.996Z,15.72
2019-03-25T22:46:46.120Z,16.42
2019-03-25T22:49:21.634Z,16.30
2019-03-25T22:51:50.736Z,15.38
2019-03-25T22:54:22.675Z,16.25
2019-03-25T22:56:57.321Z,14.68
2019-03-25T22:59:29.728Z,13.68
2019-03-25T23:01:58.854Z,15.90
2019-03-25T23:04:29.258Z,14.10
2019-03-25T23:06:58.374Z,15.98
2019-03-25T23:09:27.837Z,16.15
2019-03-25T23:12:02.242Z,16.32
2019-03-25T23:14:32.099Z,17.57
2019-03-25T23:17:01.236Z,17.37
2019-03-25T23:19:30.710Z,16.20
2019-03-25T23:21:59.836Z,16.70
2019-03-25T23:24:32.029Z,17.27
2019-03-25T23:27:01.153Z,16.17
2019-03-25T23:29:31.931Z,17.95
2019-03-25T23:32:01.053Z,16.80
2019-03-25T23:34:31.846Z,17.30
2019-03-25T23:37:01.620Z,17.40
2019-03-25T23:39:34.183Z,19.55
2019-03-25T23:42:08.453Z,20.37
2019-03-25T23:44:41.322Z,19.07
2019-03-25T23:47:11.139Z,19.52
2019-03-25T23:49:40.310Z,20.25
2019-03-25T23:52:10.050Z,20.57
2019-03-25T23:54:39.167Z,20.05
2019-03-25T23:57:08.250Z,21.65
2019-03-25T23:59:37.731Z,21.80
